Time;durP1;ratioP1;P1;durP2;ratioP2;P2;SDS_P1;SDS_P2;PMS_P1;PMS_P2;Temp;Humidity;BMP_temperature;BMP_pressure;BME280_temperature;BME280_humidity;BME280_pressure;Samples;Min_cycle;Max_cycle;Signal;HPM_P1;HPM_P2
2024/01/25 00:00:13;;;;;;;;;3.67;1.00;;;;;13.56;81.67;102864.81;4994133;28;45375;-39
2024/01/25 00:02:38;;;;;;;;;8.67;3.67;;;;;13.54;82.28;102858.72;4992523;28;46266;-39
2024/01/25 00:05:04;;;;;;;;;3.00;2.67;;;;;13.55;81.79;102857.75;4993902;28;45149;-39
2024/01/25 00:07:30;;;;;;;;;5.00;1.67;;;;;13.52;82.29;102857.97;4994160;28;45357;-39
2024/01/25 00:09:55;;;;;;;;;6.00;4.00;;;;;13.44;82.98;102849.69;4994006;28;45334;-40
2024/01/25 00:12:20;;;;;;;;;3.33;2.67;;;;;13.45;83.37;102846.06;4993435;28;47238;-40
2024/01/25 00:14:45;;;;;;;;;4.00;3.00;;;;;13.47;83.56;102847.63;4993760;28;45168;-38
2024/01/25 00:17:11;;;;;;;;;8.00;3.67;;;;;13.47;83.70;102841.44;4992456;28;45313;-39
2024/01/25 00:19:36;;;;;;;;;3.00;3.00;;;;;13.46;84.50;102837.06;4993831;28;45313;-38
2024/01/25 00:22:01;;;;;;;;;3.67;2.33;;;;;13.44;84.83;102841.66;4993691;28;45453;-38
2024/01/25 00:24:27;;;;;;;;;9.00;3.00;;;;;13.42;84.94;102832.91;4993686;28;45325;-39
2024/01/25 00:26:52;;;;;;;;;5.67;4.33;;;;;13.44;85.45;102830.97;4992270;28;45409;-39
2024/01/25 00:29:17;;;;;;;;;8.00;5.00;;;;;13.43;85.27;102826.59;4993650;28;45485;-38
2024/01/25 00:31:43;;;;;;;;;15.00;3.00;;;;;13.37;85.75;102825.22;4993316;28;46472;-38
2024/01/25 00:34:08;;;;;;;;;6.33;4.33;;;;;13.41;86.20;102821.38;4993336;28;45519;-39
2024/01/25 00:36:34;;;;;;;;;7.67;6.33;;;;;13.43;86.46;102832.78;4993406;28;45389;-39
2024/01/25 00:38:59;;;;;;;;;7.00;5.33;;;;;13.41;86.70;102828.53;4993690;28;45342;-39
2024/01/25 00:41:25;;;;;;;;;10.00;8.33;;;;;13.40;87.08;102829.47;4993215;28;45859;-39
2024/01/25 00:43:51;;;;;;;;;27.67;18.33;;;;;13.37;87.44;102813.69;4993085;28;45782;-38
2024/01/25 00:46:16;;;;;;;;;17.00;10.67;;;;;13.38;87.36;102818.91;4993339;28;45381;-39
2024/01/25 00:48:45;;;;;;;;;16.00;13.33;;;;;13.35;87.25;102812.94;4993121;28;45327;-38
2024/01/25 00:51:20;;;;;;;;;12.00;7.67;;;;;13.32;87.20;102814.03;4992953;28;46120;-39
2024/01/25 00:53:46;;;;;;;;;16.00;9.33;;;;;13.32;87.72;102806.03;4992984;28;45342;-39
2024/01/25 00:56:12;;;;;;;;;12.67;12.00;;;;;13.30;87.22;102812.44;4992967;28;45566;-38
2024/01/25 00:58:37;;;;;;;;;12.33;9.33;;;;;13.26;86.76;102811.81;4993334;28;45378;-37
2024/01/25 01:01:03;;;;;;;;;9.00;8.67;;;;;13.26;86.38;102813.63;4992729;28;47017;-39
2024/01/25 01:03:29;;;;;;;;;14.00;9.00;;;;;13.25;86.22;102809.25;4992889;28;45443;-39
2024/01/25 01:05:54;;;;;;;;;8.67;6.67;;;;;13.19;86.36;102808.72;4992932;28;45254;-38
2024/01/25 01:08:20;;;;;;;;;8.33;5.00;;;;;13.17;86.10;102815.97;4992019;28;45458;-37
2024/01/25 01:10:46;;;;;;;;;9.00;5.00;;;;;13.14;86.63;102813.53;4992328;28;46745;-38
2024/01/25 01:13:11;;;;;;;;;9.67;4.67;;;;;13.13;86.09;102817.16;4994179;28;45334;-39
2024/01/25 01:15:37;;;;;;;;;7.33;3.00;;;;;13.11;85.95;102812.91;4996158;28;45401;-39
2024/01/25 01:18:03;;;;;;;;;6.33;4.00;;;;;13.10;85.76;102816.53;4996250;28;45448;-39
2024/01/25 01:20:28;;;;;;;;;5.00;2.00;;;;;13.07;85.36;102804.28;4995933;28;46332;-39
2024/01/25 01:22:54;;;;;;;;;8.00;2.00;;;;;13.07;85.21;102806.94;4994624;28;45453;-37
2024/01/25 01:25:19;;;;;;;;;3.00;2.00;;;;;13.04;84.82;102795.63;4995877;27;45244;-39
2024/01/25 01:27:44;;;;;;;;;5.00;3.00;;;;;13.01;84.72;102795.84;4996018;28;45260;-39
2024/01/25 01:30:10;;;;;;;;;3.67;1.00;;;;;12.77;84.70;102750.41;4995688;28;46219;-37
2024/01/25 01:32:36;;;;;;;;;3.00;2.00;;;;;13.04;84.75;102804.50;4995587;28;45334;-39
2024/01/25 01:35:01;;;;;;;;;7.33;4.00;;;;;13.01;84.78;102788.69;4995806;28;45305;-39
2024/01/25 01:37:26;;;;;;;;;1.33;1.00;;;;;13.05;84.67;102802.66;4995930;28;45467;-38
2024/01/25 01:39:52;;;;;;;;;6.33;4.00;;;;;12.98;84.68;102792.44;4995357;28;48488;-39
2024/01/25 01:42:18;;;;;;;;;3.33;1.00;;;;;13.01;84.64;102796.69;5010974;28;45663;-38
2024/01/25 01:44:43;;;;;;;;;4.00;4.00;;;;;13.02;84.51;102803.75;4995405;28;45325;-39
2024/01/25 01:47:09;;;;;;;;;2.33;2.33;;;;;13.01;84.50;102811.88;4995786;28;45284;-40
2024/01/25 01:49:35;;;;;;;;;9.33;5.00;;;;;13.00;84.62;102805.69;4995238;28;47492;-39
2024/01/25 01:52:02;;;;;;;;;9.33;4.00;;;;;13.00;84.52;102800.34;4995531;28;45343;-39
2024/01/25 01:54:27;;;;;;;;;5.00;2.67;;;;;13.01;84.71;102801.19;4995837;28;45293;-37
2024/01/25 01:56:53;;;;;;;;;6.33;3.00;;;;;12.97;84.50;102797.88;4995368;28;45495;-39
2024/01/25 01:59:20;;;;;;;;;6.67;2.67;;;;;12.98;84.45;102803.13;4995197;28;46949;-39
2024/01/25 02:01:45;;;;;;;;;4.00;3.00;;;;;12.96;84.48;102797.03;4995173;28;45345;-39
2024/01/25 02:04:11;;;;;;;;;5.00;3.00;;;;;12.88;84.76;102788.72;4995333;28;45329;-37
2024/01/25 02:06:36;;;;;;;;;4.00;3.67;;;;;12.93;84.58;102794.56;4995662;28;45311;-38
2024/01/25 02:09:02;;;;;;;;;3.33;3.00;;;;;12.95;84.79;102803.34;4995153;28;46112;-39
2024/01/25 02:11:28;;;;;;;;;2.33;2.33;;;;;12.94;84.72;102798.13;4995149;28;45359;-39
2024/01/25 02:13:53;;;;;;;;;5.67;1.33;;;;;12.90;84.70;102789.47;4995240;28;45721;-39
2024/01/25 02:16:19;;;;;;;;;6.67;2.33;;;;;12.95;84.40;102802.50;4995414;28;45461;-38
2024/01/25 02:18:45;;;;;;;;;4.00;2.00;;;;;12.94;84.94;102801.66;4994933;28;47351;-39
2024/01/25 02:21:10;;;;;;;;;3.33;3.00;;;;;12.93;85.04;102799.06;4995135;28;45337;-39
2024/01/25 02:23:36;;;;;;;;;2.67;2.33;;;;;12.91;85.35;102785.84;4995140;28;45417;-39
2024/01/25 02:26:01;;;;;;;;;2.00;2.00;;;;;12.92;85.68;102792.03;4994792;28;45418;-38
2024/01/25 02:28:27;;;;;;;;;7.00;4.00;;;;;12.89;85.15;102786.91;4993552;28;46367;-39
2024/01/25 02:30:52;;;;;;;;;6.00;4.00;;;;;12.92;85.70;102797.38;4994872;28;45318;-38
2024/01/25 02:33:18;;;;;;;;;3.67;2.00;;;;;12.91;85.66;102798.34;4994927;28;45381;-39
2024/01/25 02:35:43;;;;;;;;;5.00;2.00;;;;;12.86;85.91;102798.69;4995212;28;45339;-37
2024/01/25 02:38:09;;;;;;;;;4.67;2.00;;;;;12.84;86.29;102789.91;4994873;28;45884;-39
2024/01/25 02:40:34;;;;;;;;;8.00;7.00;;;;;12.87;85.83;102792.38;4994871;28;45396;-38
2024/01/25 02:42:59;;;;;;;;;8.00;3.00;;;;;12.87;85.97;102799.53;4994961;28;45320;-38
2024/01/25 02:45:25;;;;;;;;;7.33;3.00;;;;;12.89;86.36;102800.25;4993911;28;45586;-41
2024/01/25 02:47:50;;;;;;;;;3.00;2.00;;;;;12.88;85.76;102804.75;4994656;28;45365;-38
2024/01/25 02:50:15;;;;;;;;;3.00;3.00;;;;;12.89;85.69;102797.59;4994547;28;45398;-37
2024/01/25 02:52:41;;;;;;;;;11.00;6.00;;;;;12.79;86.34;102786.72;4994711;28;45292;-38
2024/01/25 02:55:06;;;;;;;;;7.67;4.33;;;;;12.86;86.07;102792.47;4995167;28;45415;-38
2024/01/25 02:57:32;;;;;;;;;4.00;2.00;;;;;12.86;86.18;102798.69;4994680;28;45349;-37
2024/01/25 02:59:57;;;;;;;;;4.00;3.00;;;;;12.86;86.33;102795.16;4994752;28;45347;-39
2024/01/25 03:02:22;;;;;;;;;7.67;3.00;;;;;12.86;86.54;102797.81;4995049;28;45339;-39
2024/01/25 03:04:48;;;;;;;;;4.00;4.00;;;;;12.80;86.06;102795.59;4994946;28;45418;-40
2024/01/25 03:07:13;;;;;;;;;5.67;4.00;;;;;12.83;86.41;102798.88;4994567;28;46499;-40
2024/01/25 03:09:39;;;;;;;;;4.00;2.00;;;;;12.80;86.21;102791.09;4994500;28;45296;-41
2024/01/25 03:12:05;;;;;;;;;4.00;3.00;;;;;12.81;86.05;102792.81;4994346;28;45370;-40
2024/01/25 03:14:30;;;;;;;;;8.33;4.00;;;;;12.79;86.19;102793.88;4994841;27;45437;-39
2024/01/25 03:16:55;;;;;;;;;7.00;7.00;;;;;12.77;87.02;102793.13;4994527;28;46265;-39
2024/01/25 03:19:27;;;;;;;;;7.00;4.00;;;;;12.76;86.95;102791.44;4994440;28;45440;-40
2024/01/25 03:21:52;;;;;;;;;7.00;4.00;;;;;12.72;87.39;102794.34;4994525;28;45227;-41
2024/01/25 03:24:18;;;;;;;;;4.00;2.00;;;;;12.73;87.24;102784.50;4994572;28;45430;-40
2024/01/25 03:26:43;;;;;;;;;2.67;2.33;;;;;12.69;87.51;102775.00;4994434;28;46031;-38
2024/01/25 03:29:08;;;;;;;;;7.00;6.00;;;;;12.75;87.36;102785.22;4994119;28;45469;-39
2024/01/25 03:31:35;;;;;;;;;7.67;5.33;;;;;12.73;87.94;102776.50;5009533;28;45955;-41
2024/01/25 03:34:01;;;;;;;;;4.00;4.00;;;;;12.75;87.65;102782.56;4994857;28;45350;-40
2024/01/25 03:36:26;;;;;;;;;8.33;4.00;;;;;12.71;86.64;102781.94;4992728;28;45442;-40
2024/01/25 03:38:52;;;;;;;;;3.00;3.00;;;;;12.70;86.97;102776.72;4994119;28;45523;-40
2024/01/25 03:41:17;;;;;;;;;11.00;7.00;;;;;12.68;88.13;102773.28;4994296;28;45499;-40
2024/01/25 03:43:44;;;;;;;;;6.67;6.00;;;;;12.63;88.70;102776.28;4994301;28;45486;-40
2024/01/25 03:46:10;;;;;;;;;7.00;4.33;;;;;12.60;88.93;102776.53;4993911;28;45605;-39
2024/01/25 03:48:35;;;;;;;;;8.00;3.33;;;;;12.61;88.96;102775.56;4993941;28;45350;-40
2024/01/25 03:51:00;;;;;;;;;9.67;6.67;;;;;12.61;88.84;102772.88;4994046;28;45275;-40
2024/01/25 03:53:26;;;;;;;;;7.00;5.00;;;;;12.59;88.88;102771.28;4994418;28;45431;-40
2024/01/25 03:55:51;;;;;;;;;10.33;6.00;;;;;12.57;89.62;102765.22;4993760;28;46514;-39
2024/01/25 03:58:19;;;;;;;;;9.00;5.00;;;;;12.50;88.73;102764.78;4993661;28;45349;-39
2024/01/25 04:00:45;;;;;;;;;9.00;5.67;;;;;12.55;89.09;102777.81;4993923;28;45468;-39
2024/01/25 04:03:11;;;;;;;;;6.33;4.00;;;;;12.50;89.42;102783.47;4994079;28;45442;-40
2024/01/25 04:05:37;;;;;;;;;10.67;7.67;;;;;12.49;89.00;102774.63;4993869;28;45419;-39
2024/01/25 04:08:03;;;;;;;;;6.33;3.67;;;;;12.51;88.95;102785.16;4993887;28;45406;-40
2024/01/25 04:10:29;;;;;;;;;8.33;6.00;;;;;12.47;89.67;102765.88;4994011;28;45297;-40
2024/01/25 04:12:54;;;;;;;;;12.33;8.00;;;;;12.44;88.78;102766.09;4993796;28;45227;-40
2024/01/25 04:15:19;;;;;;;;;14.00;7.33;;;;;12.48;89.73;102772.06;4993617;28;46129;-40
2024/01/25 04:17:45;;;;;;;;;9.67;7.67;;;;;12.47;89.83;102765.00;4993962;28;45512;-38
2024/01/25 04:20:10;;;;;;;;;12.67;7.67;;;;;12.45;89.39;102773.13;4993715;28;45262;-40
2024/01/25 04:22:36;;;;;;;;;9.67;5.67;;;;;12.40;90.03;102758.41;4993961;28;45297;-40
2024/01/25 04:25:02;;;;;;;;;11.67;8.67;;;;;12.42;90.44;102772.50;4993690;28;45291;-39
2024/01/25 04:27:27;;;;;;;;;9.67;9.00;;;;;12.31;90.15;102761.75;4993548;28;45157;-39
2024/01/25 04:29:52;;;;;;;;;6.33;6.33;;;;;12.39;89.52;102778.06;4993457;28;45380;-40
2024/01/25 04:32:18;;;;;;;;;9.00;7.00;;;;;12.32;91.06;102769.63;4993830;28;45268;-40
2024/01/25 04:34:44;;;;;;;;;11.33;9.00;;;;;12.39;90.92;102780.75;4993179;28;46271;-40
2024/01/25 04:37:09;;;;;;;;;17.00;9.00;;;;;12.38;90.99;102785.19;4992184;28;45448;-40
2024/01/25 04:39:34;;;;;;;;;10.33;8.33;;;;;12.34;91.43;102778.38;4993228;28;45361;-38
2024/01/25 04:42:00;;;;;;;;;11.00;9.00;;;;;12.34;91.83;102770.34;4993601;28;45336;-40
2024/01/25 04:44:25;;;;;;;;;16.33;11.67;;;;;12.34;92.00;102770.34;4992971;28;47349;-38
2024/01/25 04:46:53;;;;;;;;;14.33;12.33;;;;;12.39;91.74;102772.72;4993250;28;45433;-39
2024/01/25 04:49:18;;;;;;;;;13.67;9.33;;;;;12.36;92.17;102772.94;4995788;28;45223;-40
2024/01/25 04:51:44;;;;;;;;;16.33;11.67;;;;;12.39;91.65;102783.41;4996485;28;45435;-39
2024/01/25 04:54:12;;;;;;;;;10.00;8.33;;;;;12.35;92.20;102769.41;4996129;28;48164;-39
2024/01/25 04:56:38;;;;;;;;;24.33;12.33;;;;;12.37;91.92;102769.31;4996192;28;45338;-39
2024/01/25 04:59:03;;;;;;;;;11.33;5.67;;;;;12.39;92.23;102765.56;4996443;28;45386;-40
2024/01/25 05:01:28;;;;;;;;;9.00;8.00;;;;;12.38;92.46;102769.19;4996784;28;45613;-39
2024/01/25 05:03:54;;;;;;;;;14.00;9.67;;;;;12.35;92.37;102763.22;4995913;28;47609;-39
2024/01/25 05:06:19;;;;;;;;;15.33;10.00;;;;;12.36;92.21;102763.09;4996020;28;45386;-40
2024/01/25 05:08:44;;;;;;;;;14.33;9.00;;;;;12.35;92.32;102758.75;4995914;28;45421;-39
2024/01/25 05:11:10;;;;;;;;;11.67;11.67;;;;;12.36;91.49;102755.09;4996099;28;45549;-40
2024/01/25 05:13:35;;;;;;;;;15.00;10.33;;;;;12.34;91.88;102756.16;4995645;28;46396;-39
2024/01/25 05:16:00;;;;;;;;;10.00;8.00;;;;;12.28;91.88;102735.25;4996047;28;45379;-39
2024/01/25 05:18:26;;;;;;;;;10.33;8.00;;;;;12.33;92.25;102754.47;4994620;28;45351;-40
2024/01/25 05:20:51;;;;;;;;;9.67;8.00;;;;;12.34;92.26;102742.81;4995892;28;45371;-40
2024/01/25 05:23:16;;;;;;;;;9.33;9.00;;;;;12.29;92.88;102742.31;4995452;28;47899;-39
2024/01/25 05:25:41;;;;;;;;;9.00;9.00;;;;;12.22;93.30;102740.06;4995733;28;45413;-40
2024/01/25 05:28:07;;;;;;;;;12.67;9.33;;;;;12.19;93.66;102744.78;4995864;28;45494;-40
2024/01/25 05:30:32;;;;;;;;;7.00;7.00;;;;;12.11;93.08;102733.78;4995989;28;45490;-40
2024/01/25 05:32:58;;;;;;;;;8.67;8.00;;;;;12.13;94.09;102734.53;4995628;28;46279;-41
2024/01/25 05:35:23;;;;;;;;;8.67;6.00;;;;;12.11;94.14;102731.13;4995779;28;45337;-39
2024/01/25 05:37:49;;;;;;;;;11.00;8.33;;;;;12.11;94.67;102726.63;4994415;28;45769;-40
2024/01/25 05:40:15;;;;;;;;;7.33;7.33;;;;;12.11;94.29;102720.44;4996012;28;45283;-40
2024/01/25 05:42:40;;;;;;;;;10.67;7.00;;;;;12.10;93.99;102722.28;4995154;28;46061;-39
2024/01/25 05:45:06;;;;;;;;;10.67;8.33;;;;;12.16;94.43;102718.31;4995387;28;45233;-38
2024/01/25 05:47:31;;;;;;;;;10.00;8.00;;;;;12.22;93.45;102724.06;4995873;28;45326;-40
2024/01/25 05:49:57;;;;;;;;;11.00;9.00;;;;;12.18;92.92;102716.41;4995536;28;45362;-40
2024/01/25 05:52:23;;;;;;;;;9.00;4.67;;;;;12.20;93.33;102723.31;4995457;28;45367;-39
2024/01/25 05:54:51;;;;;;;;;10.33;7.00;;;;;12.21;93.09;102719.66;4995313;28;45445;-40
2024/01/25 05:57:17;;;;;;;;;11.33;8.00;;;;;12.12;93.55;102711.47;4995646;28;45445;-39
2024/01/25 05:59:42;;;;;;;;;7.00;7.00;;;;;12.19;93.49;102726.94;4994478;28;45321;-38
2024/01/25 06:02:09;;;;;;;;;7.67;7.67;;;;;12.21;92.69;102737.50;4995302;28;45377;-39
2024/01/25 06:04:34;;;;;;;;;8.67;7.00;;;;;12.16;92.27;102740.50;4995205;28;45346;-40
2024/01/25 06:06:59;;;;;;;;;10.00;10.00;;;;;12.17;93.13;102744.00;4995133;28;45386;-40
2024/01/25 06:09:25;;;;;;;;;7.67;7.67;;;;;12.08;92.64;102742.84;4995609;28;45428;-39
2024/01/25 06:11:51;;;;;;;;;9.00;8.67;;;;;12.07;93.07;102741.16;4995221;28;46496;-39
2024/01/25 06:14:16;;;;;;;;;13.67;7.00;;;;;12.01;93.37;102732.72;4994980;28;45337;-40
2024/01/25 06:16:41;;;;;;;;;13.00;9.00;;;;;12.08;93.49;102752.66;4995129;28;45727;-39
2024/01/25 06:19:07;;;;;;;;;12.33;8.67;;;;;11.96;93.78;102736.56;4995164;28;45539;-39
2024/01/25 06:21:35;;;;;;;;;14.33;12.67;;;;;12.05;93.52;102744.88;4995241;28;46143;-38
2024/01/25 06:24:03;;;;;;;;;12.00;12.00;;;;;12.03;94.69;102747.66;4995199;28;45299;-39
2024/01/25 06:26:28;;;;;;;;;15.67;10.00;;;;;12.06;94.38;102744.78;4995003;28;45305;-37
2024/01/25 06:28:54;;;;;;;;;15.67;14.00;;;;;12.01;93.44;102741.59;4995332;28;45536;-39
2024/01/25 06:31:19;;;;;;;;;20.67;15.00;;;;;12.01;94.27;102746.03;4994726;28;45751;-40
2024/01/25 06:33:47;;;;;;;;;21.67;14.00;;;;;11.98;94.38;102737.31;4994722;28;45309;-40
2024/01/25 06:36:15;;;;;;;;;21.33;16.00;;;;;11.96;94.53;102738.38;4995225;28;45457;-41
2024/01/25 06:38:40;;;;;;;;;18.00;13.67;;;;;11.88;95.20;102730.03;4994853;28;45445;-39
2024/01/25 06:41:05;;;;;;;;;15.67;15.00;;;;;11.95;95.87;102736.66;4994602;28;45387;-40
2024/01/25 06:43:30;;;;;;;;;24.00;16.33;;;;;11.98;95.57;102731.13;4994925;28;46870;-40
2024/01/25 06:45:56;;;;;;;;;24.00;17.00;;;;;12.02;94.82;102732.63;4994218;28;47385;-40
2024/01/25 06:48:21;;;;;;;;;20.33;14.67;;;;;12.00;94.70;102729.19;4995282;28;45537;-40
2024/01/25 06:50:46;;;;;;;;;21.33;15.33;;;;;11.96;95.01;102738.38;4994281;28;46617;-38
2024/01/25 06:53:12;;;;;;;;;25.33;18.00;;;;;11.93;95.56;102731.44;4994481;28;45368;-38
2024/01/25 06:55:37;;;;;;;;;18.33;14.33;;;;;11.93;95.48;102725.28;4994659;28;45424;-38
2024/01/25 06:58:03;;;;;;;;;21.33;16.00;;;;;11.97;95.80;102727.63;4994926;28;45393;-38
2024/01/25 07:00:28;;;;;;;;;21.67;17.67;;;;;12.01;94.97;102724.72;4994368;28;46684;-39
2024/01/25 07:02:53;;;;;;;;;24.67;18.00;;;;;12.04;94.74;102716.50;4994356;28;45306;-39
2024/01/25 07:05:19;;;;;;;;;16.00;14.33;;;;;12.03;95.32;102714.81;4994803;28;45419;-37
2024/01/25 07:07:45;;;;;;;;;19.67;16.00;;;;;12.04;94.83;102716.50;4994869;28;45493;-39
2024/01/25 07:10:10;;;;;;;;;14.67;14.00;;;;;12.05;95.18;102711.06;4994044;28;45239;-39
2024/01/25 07:12:35;;;;;;;;;23.67;16.67;;;;;12.09;95.27;102706.34;4992671;28;45390;-40
2024/01/25 07:15:00;;;;;;;;;29.00;18.00;;;;;12.10;95.25;102705.41;4994584;28;45346;-39
2024/01/25 07:17:26;;;;;;;;;21.67;19.67;;;;;12.09;95.01;102714.34;4994811;28;45339;-36
2024/01/25 07:19:51;;;;;;;;;22.67;15.33;;;;;12.05;95.06;102718.19;4994122;28;46486;-40
2024/01/25 07:22:18;;;;;;;;;28.67;21.00;;;;;12.03;96.15;102722.81;4994151;28;45319;-39
2024/01/25 07:24:43;;;;;;;;;22.00;18.67;;;;;12.08;94.78;102723.31;4994233;28;45380;-40
2024/01/25 07:27:10;;;;;;;;;25.67;19.00;;;;;12.06;95.34;102720.78;4994102;28;45258;-40
2024/01/25 07:29:36;;;;;;;;;21.33;12.67;;;;;12.05;95.11;102724.41;4994076;28;45375;-40
2024/01/25 07:32:02;;;;;;;;;19.67;19.00;;;;;12.05;96.31;102723.53;4994066;28;45398;-40
2024/01/25 07:34:27;;;;;;;;;29.00;20.67;;;;;12.07;96.34;102724.28;4993995;28;45318;-40
2024/01/25 07:36:52;;;;;;;;;23.00;17.33;;;;;12.04;96.35;102711.16;4994214;28;45381;-39
2024/01/25 07:39:18;;;;;;;;;26.00;18.00;;;;;12.12;96.47;102728.34;4993797;28;45990;-39
2024/01/25 07:41:43;;;;;;;;;21.00;20.67;;;;;12.01;96.16;102712.25;4993805;28;45392;-39
2024/01/25 07:44:08;;;;;;;;;24.00;15.67;;;;;12.11;97.01;102725.78;4993978;28;45352;-40
2024/01/25 07:46:34;;;;;;;;;29.67;21.33;;;;;12.13;96.93;102713.19;4993954;28;45499;-38
2024/01/25 07:48:59;;;;;;;;;25.00;18.00;;;;;12.10;96.68;102708.94;4993779;28;47023;-39
2024/01/25 07:51:28;;;;;;;;;26.00;20.33;;;;;12.08;96.80;102697.50;4993583;28;48564;-41
2024/01/25 07:53:54;;;;;;;;;24.67;18.33;;;;;12.20;96.67;102707.31;4994018;28;45481;-38
2024/01/25 07:56:21;;;;;;;;;25.33;20.33;;;;;12.28;96.26;102714.75;4994046;28;45383;-38
2024/01/25 07:58:48;;;;;;;;;22.33;14.33;;;;;12.32;96.29;102710.06;4993498;28;45580;-39
2024/01/25 08:01:17;;;;;;;;;22.33;17.00;;;;;12.23;96.51;102698.25;4993595;28;45476;-38
2024/01/25 08:03:42;;;;;;;;;25.33;18.67;;;;;12.34;96.66;102705.47;4993904;28;45544;-40
2024/01/25 08:06:08;;;;;;;;;23.00;17.33;;;;;12.37;95.99;102714.09;4993916;28;45495;-39
2024/01/25 08:08:33;;;;;;;;;23.67;20.67;;;;;12.40;96.28;102710.38;4992724;28;46337;-41
2024/01/25 08:10:58;;;;;;;;;24.33;15.67;;;;;12.44;95.71;102710.03;4992133;28;45445;-38
2024/01/25 08:13:24;;;;;;;;;28.00;19.33;;;;;12.48;96.11;102722.19;4993078;28;45876;-41
2024/01/25 08:15:51;;;;;;;;;19.00;18.00;;;;;12.54;95.60;102712.03;4993813;28;45436;-40
2024/01/25 08:18:18;;;;;;;;;20.33;17.33;;;;;12.57;95.84;102711.81;4993109;28;45442;-39
2024/01/25 08:20:44;;;;;;;;;25.67;17.33;;;;;12.63;95.63;102716.69;4992287;28;45618;-39
2024/01/25 08:23:09;;;;;;;;;33.67;18.33;;;;;12.64;94.83;102707.72;4992897;28;45513;-39
2024/01/25 08:25:35;;;;;;;;;20.67;17.33;;;;;12.68;94.75;102718.09;4994922;28;45453;-40
2024/01/25 08:28:00;;;;;;;;;24.00;18.00;;;;;12.69;94.91;102706.44;4994683;28;46191;-40
2024/01/25 08:30:25;;;;;;;;;19.67;17.67;;;;;12.70;94.60;102712.63;4994308;28;45493;-40
2024/01/25 08:32:51;;;;;;;;;23.50;19.50;;;;;12.71;94.50;102704.50;4994623;28;45380;-39
2024/01/25 08:35:17;;;;;;;;;26.67;20.67;;;;;12.71;93.95;102698.28;4994749;28;45418;-39
2024/01/25 08:37:42;;;;;;;;;25.33;18.33;;;;;12.78;94.67;102710.25;4994420;28;45464;-39
2024/01/25 08:40:09;;;;;;;;;18.67;15.67;;;;;12.76;93.76;102705.97;4994409;28;45453;-38
2024/01/25 08:42:36;;;;;;;;;21.67;19.33;;;;;12.81;94.14;102714.50;4994486;28;45482;-39
2024/01/25 08:45:02;;;;;;;;;21.00;15.00;;;;;12.78;94.17;102720.06;4994989;28;45627;-40
2024/01/25 08:47:27;;;;;;;;;17.33;13.33;;;;;12.77;94.40;102719.22;4993937;28;46493;-37
2024/01/25 08:49:52;;;;;;;;;22.67;17.67;;;;;12.79;94.70;102719.09;4994381;28;45457;-38
2024/01/25 08:52:18;;;;;;;;;22.67;19.67;;;;;12.83;94.00;102720.59;4994394;28;45369;-40
2024/01/25 08:54:43;;;;;;;;;24.67;16.33;;;;;12.84;93.88;102716.94;4994545;28;45461;-39
2024/01/25 08:57:10;;;;;;;;;17.00;16.33;;;;;12.87;94.08;102725.59;4993742;28;46587;-38
2024/01/25 08:59:37;;;;;;;;;22.33;17.67;;;;;12.89;94.33;102722.78;4994228;28;45564;-39
2024/01/25 09:02:06;;;;;;;;;26.67;19.67;;;;;12.92;94.22;102720.75;4994259;28;45256;-38
2024/01/25 09:04:32;;;;;;;;;20.00;14.00;;;;;13.01;94.14;102732.56;4994456;28;45501;-39
2024/01/25 09:06:58;;;;;;;;;22.33;18.67;;;;;13.03;93.27;102736.00;4993759;28;46211;-39
2024/01/25 09:09:23;;;;;;;;;20.00;16.00;;;;;13.05;93.40;102730.53;4994076;28;45466;-39
2024/01/25 09:11:49;;;;;;;;;22.00;18.33;;;;;13.01;92.99;102711.19;4994186;28;45426;-40
2024/01/25 09:14:14;;;;;;;;;21.00;16.00;;;;;13.10;92.86;102725.69;4994267;28;45504;-40
2024/01/25 09:16:40;;;;;;;;;19.50;16.50;;;;;13.06;92.80;102722.41;4993863;28;45981;-39
2024/01/25 09:19:05;;;;;;;;;24.33;14.67;;;;;13.18;92.57;102731.31;4993679;28;45333;-39
2024/01/25 09:21:30;;;;;;;;;21.00;15.00;;;;;13.20;92.75;102735.59;4993924;28;45529;-38
2024/01/25 09:23:56;;;;;;;;;15.33;14.67;;;;;13.19;92.60;102720.53;4993953;28;45358;-40
2024/01/25 09:26:21;;;;;;;;;18.67;10.33;;;;;13.30;92.06;102732.25;4993298;28;46554;-40
2024/01/25 09:28:47;;;;;;;;;18.67;14.00;;;;;13.35;91.64;102730.06;5004046;27;45508;-40
2024/01/25 09:31:12;;;;;;;;;22.00;16.67;;;;;13.40;91.38;102735.91;4996314;27;45495;-38
2024/01/25 09:33:37;;;;;;;;;19.00;15.67;;;;;13.36;91.42;102721.94;4995460;27;45451;-38
2024/01/25 09:36:03;;;;;;;;;19.33;14.67;;;;;13.38;91.22;102716.47;4993901;28;45387;-38
2024/01/25 09:38:29;;;;;;;;;24.33;17.00;;;;;13.53;90.87;102731.38;4993330;28;45327;-39
2024/01/25 09:40:55;;;;;;;;;24.00;14.67;;;;;13.63;90.46;102724.31;4993992;28;45508;-37
2024/01/25 09:43:22;;;;;;;;;16.00;16.00;;;;;13.71;89.74;102721.91;4993845;28;45433;-38
2024/01/25 09:45:52;;;;;;;;;18.33;13.67;;;;;13.73;89.33;102711.94;4993752;28;45417;-39
2024/01/25 09:48:18;;;;;;;;;18.67;15.00;;;;;13.83;88.75;102720.13;4993376;28;45485;-39
2024/01/25 09:50:47;;;;;;;;;14.67;8.33;;;;;13.84;88.37;102726.31;4993230;28;45442;-39
2024/01/25 09:53:20;;;;;;;;;20.33;14.67;;;;;13.79;88.90;102732.03;4993869;28;45521;-38
2024/01/25 09:55:55;;;;;;;;;21.67;17.00;;;;;13.78;88.85;102733.00;4993441;28;47522;-39
2024/01/25 09:58:21;;;;;;;;;21.00;16.00;;;;;13.82;89.10;102731.78;4993301;28;45475;-39
2024/01/25 10:00:47;;;;;;;;;16.67;15.67;;;;;13.77;88.77;102725.91;4993666;28;45468;-41
2024/01/25 10:03:12;;;;;;;;;17.33;15.67;;;;;13.80;88.91;102733.72;4993482;28;46091;-39
2024/01/25 10:05:37;;;;;;;;;22.00;19.67;;;;;13.78;89.00;102729.44;4991876;28;46890;-39
2024/01/25 10:08:03;;;;;;;;;19.33;16.67;;;;;13.75;89.03;102737.72;4993757;28;45399;-39
2024/01/25 10:10:32;;;;;;;;;19.00;16.67;;;;;13.66;89.31;102732.13;4993340;28;45425;-39
2024/01/25 10:12:57;;;;;;;;;18.00;17.00;;;;;13.67;89.29;102744.50;4993816;28;45660;-39
2024/01/25 10:15:24;;;;;;;;;17.00;16.00;;;;;13.67;89.41;102746.34;4992883;28;46178;-38
2024/01/25 10:17:49;;;;;;;;;25.00;16.33;;;;;13.64;89.55;102735.88;4993167;28;46746;-38
2024/01/25 10:20:15;;;;;;;;;19.67;15.33;;;;;13.58;89.60;102734.53;4993020;28;45467;-39
2024/01/25 10:22:43;;;;;;;;;20.67;15.00;;;;;13.57;89.87;102731.94;4993389;28;45464;-38
2024/01/25 10:25:13;;;;;;;;;17.67;14.33;;;;;13.75;89.30;102746.59;4992765;28;46326;-38
2024/01/25 10:27:39;;;;;;;;;19.33;15.00;;;;;13.87;89.08;102744.81;4992987;28;45374;-39
2024/01/25 10:30:07;;;;;;;;;20.33;16.00;;;;;14.05;88.27;102746.03;4993106;28;45492;-39
2024/01/25 10:32:33;;;;;;;;;29.33;17.33;;;;;14.21;87.48;102730.47;4993337;28;45631;-38
2024/01/25 10:35:01;;;;;;;;;21.00;17.00;;;;;14.45;86.44;102740.16;4992636;28;47334;-39
2024/01/25 10:37:28;;;;;;;;;17.33;13.00;;;;;14.59;85.48;102733.75;4992807;28;45553;-39
2024/01/25 10:39:55;;;;;;;;;18.00;15.67;;;;;14.63;85.06;102733.38;4993039;28;45440;-39
2024/01/25 10:42:20;;;;;;;;;21.00;15.00;;;;;14.79;84.21;102741.03;4993272;28;45497;-39
2024/01/25 10:44:46;;;;;;;;;15.33;10.67;;;;;14.83;83.90;102734.44;4992394;28;47460;-39
2024/01/25 10:47:12;;;;;;;;;12.00;11.67;;;;;14.78;83.87;102728.59;4992388;28;46540;-39
2024/01/25 10:49:37;;;;;;;;;19.00;14.00;;;;;14.72;83.59;102735.31;4992586;28;45569;-37
2024/01/25 10:52:06;;;;;;;;;16.33;15.00;;;;;14.61;83.96;102731.78;4993317;28;45358;-39
2024/01/25 10:54:32;;;;;;;;;19.67;14.67;;;;;14.56;84.06;102729.50;4992870;28;47058;-38
2024/01/25 10:56:58;;;;;;;;;17.67;12.33;;;;;14.42;84.37;102711.84;4992859;28;45479;-39
2024/01/25 10:59:25;;;;;;;;;18.33;16.00;;;;;14.39;84.95;102722.78;4992990;28;45358;-39
2024/01/25 11:01:50;;;;;;;;;22.00;16.33;;;;;14.32;85.25;102721.56;4992790;28;45504;-39
2024/01/25 11:04:17;;;;;;;;;17.33;13.33;;;;;14.42;85.46;102730.56;4992516;28;46683;-38
2024/01/25 11:06:45;;;;;;;;;21.00;14.00;;;;;14.58;84.90;102732.91;4992366;28;45453;-40
2024/01/25 11:09:17;;;;;;;;;22.33;15.67;;;;;14.68;84.60;102711.56;4992639;28;45196;-39